Minnesota Lake, Minnesota
Current Conditions -  °F | °C
As of 12:14 PM on Friday 24 Oct 2014 (Local Time) from KACQ Reporting Station
Haze Haze  
Wind Chill: 15°   Ceiling: 1000
Heat Index: 15°   Visibility: 5mi
Dew Point: 11°   Wind: 10mph
Humidity: 77%   Direction: 200°SSW
Pressure: 29.9"   Gusts: NA
Location:  43.84°N, 93.83°W
Report Text: KACQ 241714Z AUTO 20009KT 5SM HZ OVC010 15/11 A2990 RMK AO2
Loading
Personal Weather Stations






























Interactive Weather Map
Tropical Storm Tracking
New forecast layout! Learn more

10-Day Weather Forecast

Advertisements
Track Severe Weather on mobile